Aircraft
PNM2537 PT-TAA E 110
MMTP
Tapachula International Airport
MMIT
General Antonio Cárdenas Rodríguez National Airport / Ixtepec Air Base
Pilot:: Aureliano
Aircraft:: NextGen EMB-110P1 UP Linhas Aereas
Alternate: MMVR
Network: ivao
FLIGHT DETAILS
Distance: 186nm Duration 00h 54m
Cruise Speed: Flight Level: 12500
Validation: Validated Type Regular
Flight Fuel
ZFW: 4283
Block Fuel/Initial FOB: 689
Flight Fuel: 360
Cargo
Passengers: 19
Cargo: 4900
ROUTE
ROUTE: DCT
REMARKS:
DATE
Date: 26-05-08
Departure Time: 2035
Cargo: 4900
FLIGHT DETAILS
Crashed: No
Validator Comments: Validado por Rafael
Flight Rating: 99
LANDING ANALYSIS
Landing wind: 176º/19 kt
Landing heading: 176º
Landing VS:: -191 ft/min
Landing IAS:: 68 kt
Landing Force G: 1.1 G
Landing Bank: 1
Landing Pitch: -7
Landing Flaps: 100
Navigation Lights: ON
Landing Lights: ON
Beacon Lights: ON
Strobe Lights: ON
viserfly

ALTITUDE CHART

viserfly

MAIN EVENTS

DATE EVENT IAS ALTITUDE
2026-05-08 20:34:17 FLYacars version 1.3.4 10 101
2026-05-08 20:34:18 Aircraft boarding in progress 10 101
2026-05-08 20:34:18 FLAPS 25% 10 101
2026-05-08 20:34:18 Navigation Lights ON 10 101
2026-05-08 20:34:18 Beacon Lights ON 10 101
2026-05-08 20:34:18 Strobe Lights ON 10 101
2026-05-08 20:34:18 Landing Lights ON 10 101
2026-05-08 20:34:18 Starting Engine 2 10 101
2026-05-08 20:34:18 Starting Engine 1 10 101
2026-05-08 20:35:16 Aircraft taxiing to runway 15 101
2026-05-08 20:35:30 Detected Take-off roll, HDG 236, IAS 114kt, GS 111kt, G-force 1.1g, Pitch -3.3deg, Bank -0.1deg, Wind 220/10kt, Temp 32°C 114 96
2026-05-08 20:35:30 Airborne 114 96
2026-05-08 20:35:30 Incorrect altimeter settings on takeoff 114 96
2026-05-08 20:36:00 Gear UP, IAS 134kt, GS 140kt, ALT 1400ft AGL 134 1469
2026-05-08 20:36:05 FLAPS 0% 153kt, ALT 1545ft 153 1545
2026-05-08 20:38:29 Landing lights ON above 10000fts 114 11004
2026-05-08 20:39:06 Aircraft on Top Of Climb at 13052ft, IAS 124kt, GS 164kt, HDG 325deg, TAT 7deg, WIND 98/11kt 124 13052
2026-05-08 21:18:29 Aircraft on Top Of Descent at 11997ft, IAS 212kt, GS 258kt, HDG 9deg, TAT 8deg, WIND 86/5kt 212 11997
2026-05-08 21:21:25 FLAPS 25% 213kt, ALT 4239ft 213 4239
2026-05-08 21:21:28 Gear DOWN, IAS 213kt, GS 233kt, ALT 2790ft AGL 213 4116
2026-05-08 21:28:16 FLAPS 100% 138kt, ALT 565ft 138 565
2026-05-08 21:29:54 Landed at destination with a landing rate of -191fpm, G-force 1.1g, Pitch -6.7deg, Bank 0.7deg, HDG 176deg, IAS 68kt, GS 53kt, Wind 176/19kt, Temp 36°C 68 98
2026-05-08 21:30:02 Aircraft taxiing to apron 39 96
2026-05-08 21:30:38 FLAPS 0% 24 94
2026-05-08 21:31:06 Taxi Lights ON 7 95
2026-05-08 21:32:30 Taxi Lights OFF 15 98
2026-05-08 21:32:31 Landing Lights OFF 15 98
2026-05-08 21:32:33 Navigation Lights OFF 15 98
2026-05-08 21:32:34 Strobe Lights OFF 14 98
2026-05-08 21:32:49 Simulator Paused 13 98
2026-05-08 21:32:52 Simulator Un-Paused 13 98
2026-05-08 21:33:00 Aircraft at gate/stand, ground services are moving into position, disembarkation has begun. Remaining FOB 329kg FLYacars v1.3.4 13 98
viserfly

ACARS DATA

DATE IAS GS ALTITUDE FUEL CONSUMED OAT FLIGHT STATUS
2026-05-08 20:34:47 9 0 101 0 32 BOARDING
2026-05-08 20:35:17 18 10 101 1 32 TAXI TO RUNWAY
2026-05-08 20:35:47 131 126 891 6 32 TAKEOFF
2026-05-08 20:36:17 160 161 2100 10 26 INITIAL CLIMB
2026-05-08 20:36:47 132 138 4378 15 21 CLIMB
2026-05-08 20:37:17 123 137 6401 19 17 CLIMB
2026-05-08 20:37:47 119 142 8352 23 15 CLIMB
2026-05-08 20:38:17 115 140 10259 27 12 CLIMB
2026-05-08 20:38:47 110 139 12125 31 9 CLIMB
2026-05-08 20:39:17 157 204 13049 35 7 ENROUTE
2026-05-08 20:39:47 199 256 13205 38 7 ENROUTE
2026-05-08 20:40:17 217 280 13205 42 7 ENROUTE
2026-05-08 20:40:47 224 289 13205 46 7 ENROUTE
2026-05-08 20:41:17 227 293 13201 50 7 ENROUTE
2026-05-08 20:41:47 228 295 13203 53 7 ENROUTE
2026-05-08 20:42:17 228 295 13204 57 7 ENROUTE
2026-05-08 20:42:47 229 296 13203 61 7 ENROUTE
2026-05-08 20:43:17 229 296 13203 64 7 ENROUTE
2026-05-08 20:43:47 229 295 13201 68 7 ENROUTE
2026-05-08 20:44:17 228 294 13202 72 7 ENROUTE
2026-05-08 20:44:47 228 294 13202 76 7 ENROUTE
2026-05-08 20:45:17 228 294 13202 79 7 ENROUTE
2026-05-08 20:45:47 229 294 13201 83 7 ENROUTE
2026-05-08 20:46:17 228 294 13199 87 7 ENROUTE
2026-05-08 20:46:47 228 294 13198 90 7 ENROUTE
2026-05-08 20:47:17 228 294 13197 94 7 ENROUTE
2026-05-08 20:47:47 229 294 13196 98 7 ENROUTE
2026-05-08 20:48:17 229 294 13194 102 7 ENROUTE
2026-05-08 20:48:47 228 294 13192 105 7 ENROUTE
2026-05-08 20:49:17 228 294 13190 109 7 ENROUTE
2026-05-08 20:49:47 228 294 13188 113 7 ENROUTE
2026-05-08 20:50:18 228 294 13186 116 7 ENROUTE
2026-05-08 20:50:47 229 294 13186 120 7 ENROUTE
2026-05-08 20:51:17 228 293 13188 124 7 ENROUTE
2026-05-08 20:51:47 228 294 13186 127 7 ENROUTE
2026-05-08 20:52:17 228 293 13188 131 7 ENROUTE
2026-05-08 20:52:47 228 294 13187 135 7 ENROUTE
2026-05-08 20:53:17 228 294 13188 139 7 ENROUTE
2026-05-08 20:53:47 228 294 13187 142 7 ENROUTE
2026-05-08 20:54:17 228 294 13188 146 7 ENROUTE
2026-05-08 20:54:47 228 293 13187 150 7 ENROUTE
2026-05-08 20:55:17 228 293 13186 153 7 ENROUTE
2026-05-08 20:55:47 228 293 13186 157 7 ENROUTE
2026-05-08 20:56:17 228 293 13187 161 7 ENROUTE
2026-05-08 20:56:47 228 293 13186 164 7 ENROUTE
2026-05-08 20:57:17 228 293 13186 168 7 ENROUTE
2026-05-08 20:57:47 228 293 13186 172 7 ENROUTE
2026-05-08 20:58:17 228 293 13185 176 6 ENROUTE
2026-05-08 20:58:47 228 293 13185 179 6 ENROUTE
2026-05-08 20:59:17 228 293 13186 183 6 ENROUTE
2026-05-08 20:59:47 228 293 13185 187 6 ENROUTE
2026-05-08 21:00:17 228 293 13184 190 6 ENROUTE
2026-05-08 21:00:47 228 293 13185 194 6 ENROUTE
2026-05-08 21:01:17 228 293 13184 198 6 ENROUTE
2026-05-08 21:01:47 228 293 13186 202 6 ENROUTE
2026-05-08 21:02:17 228 293 13185 205 6 ENROUTE
2026-05-08 21:02:47 228 293 13190 209 6 ENROUTE
2026-05-08 21:03:17 227 293 13190 213 6 ENROUTE
2026-05-08 21:03:47 228 293 13188 216 6 ENROUTE
2026-05-08 21:04:17 228 294 13186 220 6 ENROUTE
2026-05-08 21:04:47 228 294 13185 224 6 ENROUTE
2026-05-08 21:05:17 228 294 13187 228 6 ENROUTE
2026-05-08 21:05:47 228 293 13184 231 6 ENROUTE
2026-05-08 21:06:17 228 294 13183 235 6 ENROUTE
2026-05-08 21:06:47 228 294 13184 239 6 ENROUTE
2026-05-08 21:07:17 228 294 13184 242 6 ENROUTE
2026-05-08 21:07:47 228 293 13183 246 6 ENROUTE
2026-05-08 21:08:17 228 294 13184 250 6 ENROUTE
2026-05-08 21:08:47 228 294 13183 254 6 ENROUTE
2026-05-08 21:09:17 228 294 13184 257 6 ENROUTE
2026-05-08 21:09:47 228 294 13184 261 6 ENROUTE
2026-05-08 21:10:17 229 293 13184 265 6 ENROUTE
2026-05-08 21:10:47 229 293 13185 269 6 ENROUTE
2026-05-08 21:11:17 229 293 13184 272 6 ENROUTE
2026-05-08 21:11:47 229 293 13185 276 6 ENROUTE
2026-05-08 21:12:17 228 293 13185 280 6 ENROUTE
2026-05-08 21:12:47 228 292 13186 284 6 ENROUTE
2026-05-08 21:13:17 228 292 13186 287 6 ENROUTE
2026-05-08 21:13:47 228 292 13186 291 6 ENROUTE
2026-05-08 21:14:17 228 291 13186 295 6 ENROUTE
2026-05-08 21:14:47 229 291 13186 298 6 ENROUTE
2026-05-08 21:15:17 229 292 13187 302 6 ENROUTE
2026-05-08 21:15:47 230 292 13185 306 6 ENROUTE
2026-05-08 21:16:17 230 291 13189 310 6 ENROUTE
2026-05-08 21:16:47 230 292 13185 313 6 ENROUTE
2026-05-08 21:17:17 230 291 13186 317 6 ENROUTE
2026-05-08 21:17:47 229 288 13211 321 6 ENROUTE
2026-05-08 21:18:17 219 269 12391 323 7 DESCENT
2026-05-08 21:18:47 206 249 11335 324 9 DESCENT
2026-05-08 21:19:17 207 245 10081 325 11 DESCENT
2026-05-08 21:19:47 212 244 8753 327 14 DESCENT
2026-05-08 21:20:17 215 242 7384 328 17 DESCENT
2026-05-08 21:20:47 216 237 5988 329 20 DESCENT
2026-05-08 21:21:17 214 236 4596 330 23 DESCENT
2026-05-08 21:21:47 195 208 3248 332 27 APPROACH
2026-05-08 21:22:17 158 158 2566 333 29 APPROACH
2026-05-08 21:22:47 140 140 2519 335 29 APPROACH
2026-05-08 21:23:17 128 136 2501 336 29 APPROACH
2026-05-08 21:23:47 136 134 2351 337 29 APPROACH
2026-05-08 21:24:17 137 128 2142 339 30 ON FINAL
2026-05-08 21:24:47 137 128 1833 340 30 ON FINAL
2026-05-08 21:25:17 139 127 1803 342 30 APPROACH
2026-05-08 21:25:47 127 126 1875 343 30 APPROACH
2026-05-08 21:26:17 145 141 1870 345 30 APPROACH
2026-05-08 21:26:47 138 132 1983 346 30 APPROACH
2026-05-08 21:27:17 160 156 1556 348 31 APPROACH
2026-05-08 21:27:47 164 159 978 350 35 ON FINAL
2026-05-08 21:28:17 131 133 541 351 36 ON FINAL
2026-05-08 21:28:47 89 76 314 352 36 ON FINAL
2026-05-08 21:29:17 104 93 153 354 36 ON FINAL
2026-05-08 21:29:47 70 59 104 356 36 ON FINAL
2026-05-08 21:30:17 32 19 96 357 36 TAXI TO APRON
2026-05-08 21:30:47 0 13 94 357 36 TAXI TO APRON
2026-05-08 21:31:17 13 32 96 358 36 TAXI TO APRON
2026-05-08 21:31:47 14 15 99 359 36 TAXI TO APRON
2026-05-08 21:32:17 15 0 98 360 36 TAXI TO APRON
2026-05-08 21:32:47 14 0 98 360 36 TAXI TO APRON
  • Join our VA!

    It has been 11 years of great learning, friendships, and stories.

  • Sign up now!